Petersburg, AK

7:02 PM AKDT on October 24, 2014 (GMT -0800)
Kake | Change Station
CLOSE
Current Station
Airport
Location: Kake,
Elevation: 171 ft
Nearby Weather Stations

Elev 171 ft 56.96 °N, 133.91 °W | Updated 6 minutes ago

Mostly Cloudy
Mostly Cloudy
43 °F
Feels Like 39 °F
N
7
Wind Variable Wind from East

Today
High -- | Low -- °F
--% Chance of Precip.
Yesterday
High -- | Low -- °F
Precip. -- in
7:46 AM 5:27 PM
New Moon, 2% visible
Pressure 29.87 in
Visibility 10.0 miles
Clouds Few 3700 ft
Scattered Clouds 6000 ft
Mostly Cloudy 8000 ft
Windchill 39 °F
Dew Point 37 °F
Humidity 81%
Rainfall 0.13 in
Snow Depth Not available.
UV 0 out of 12
Pollen Not available.
Air Quality Not available.
Flu Activity Local Activity
METAR PAFE 250256Z AUTO 08006KT 10SM FEW037 SCT060 BKN080 06/03 A2987 RMK AO1 57003

More Conditions Fewer Conditions

Pressure 29.87 in
Visibility 10.0 miles
Clouds Few 3700 ft
Scattered Clouds 6000 ft
Mostly Cloudy 8000 ft
Windchill 39 °F
Dew Point 37 °F
Humidity 81%
Rainfall 0.13 in
Snow Depth Not available.
UV 0 out of 12
Pollen Not available.
Air Quality Not available.
Flu Activity Local Activity
METAR PAFE 250256Z AUTO 08006KT 10SM FEW037 SCT060 BKN080 06/03 A2987 RMK AO1 57003

More Conditions Fewer Conditions

10-Day Weather Forecast

Almanac

Astronomy

Oct. 24, 2014 Rise Set
Actual Time 7:46 AM AKDT 5:27 PM AKDT
Civil Twilight 7:06 AM AKDT 6:07 PM AKDT
Nautical Twilight 6:22 AM AKDT 6:51 PM AKDT
Astronomical Twilight 5:37 AM AKDT 7:35 PM AKDT
Moon 8:40 AM AKDT (10/24) 6:01 PM AKDT (10/24)
Length of Visible Light 11h 00m
Length of Day
9h 41m
Tomorrow will be 4m 36s shorter.
New Moon, 2% of the Moon is Illuminated
Today
New Moon
Oct 30
First Quarter
Nov 6
Full
Nov 14
Last Quarter
Nov 22
New

Today's Extremes

State Highs State Lows

Community

WunderPhotos

Upload Photos

1,764,762 photos uploaded!

Nearby

Snow Depth

Station Depth Elevation
Long Lake 0 in 820 ft
Upper Tsaina River 9 in 1750 ft
Moraine 0 in 2100 ft
Grandview 3 in 1100 ft
Grouse Creek Divide 0 in 700 ft

Earthquake Activity

City Distance Mag. Time & Date
No recent earthquake activity has been reported nearby.
Minimum magnitude displayed is 2.5.

Coastal Water Temperatures

Place Temperature
No Stations Reporting

Nearby Weather Stations